createdAt,value
2023-04-06T00:01:19.859Z,87.34
2023-04-06T00:05:23.521Z,87.13
2023-04-06T00:09:26.418Z,87.42
2023-04-06T00:11:28.219Z,87.51
2023-04-06T00:15:31.817Z,87.97
2023-04-06T00:19:35.132Z,88.46
2023-04-06T00:21:36.490Z,88.46
2023-04-06T00:25:39.515Z,88.41
2023-04-06T00:27:40.847Z,88.32
2023-04-06T00:31:43.579Z,88.7
2023-04-06T00:35:47.321Z,88.46
2023-04-06T00:37:48.436Z,88.42
2023-04-06T00:41:51.341Z,87.99
2023-04-06T00:43:53.131Z,87.51
2023-04-06T00:47:56.765Z,87.1
2023-04-06T00:51:59.759Z,87.12
2023-04-06T00:54:01.592Z,87.22
2023-04-06T00:58:05.249Z,87.68
2023-04-06T01:02:08.719Z,88.12
2023-04-06T01:04:10.306Z,88.37
2023-04-06T01:08:13.073Z,88.27
2023-04-06T01:10:14.700Z,88.46
2023-04-06T01:12:16.076Z,88.54
2023-04-06T01:14:17.929Z,88.57
2023-04-06T01:18:21.427Z,88.54
2023-04-06T01:20:23.354Z,88.56
2023-04-06T01:24:26.612Z,89.53
2023-04-06T01:26:28.383Z,88.93
2023-04-06T01:30:32.486Z,88.39
2023-04-06T01:34:35.681Z,88.43
2023-04-06T01:36:37.755Z,88.94
2023-04-06T01:40:40.759Z,88.79
2023-04-06T01:44:44.358Z,89.04
2023-04-06T01:46:46.116Z,89.2
2023-04-06T01:50:49.010Z,89.88
2023-04-06T01:52:51.017Z,90.03
2023-04-06T01:56:54.549Z,90.31
2023-04-06T02:00:57.480Z,90.69
2023-04-06T02:02:59.590Z,90.65
2023-04-06T02:07:03.013Z,90.93
2023-04-06T02:09:04.905Z,91.1
2023-04-06T02:13:08.424Z,91.12
2023-04-06T02:17:11.538Z,91.3
2023-04-06T02:19:13.346Z,91.17
2023-04-06T02:23:17.045Z,91.21
2023-04-06T02:27:20.990Z,91.49
2023-04-06T02:29:23.092Z,91.26
2023-04-06T02:33:25.980Z,91.25
2023-04-06T02:35:28.011Z,91.12
2023-04-06T02:39:30.714Z,91.07
2023-04-06T02:43:34.324Z,91.05
2023-04-06T02:45:36.148Z,91.06
2023-04-06T02:49:39.646Z,91.36
2023-04-06T02:51:41.207Z,91.15
2023-04-06T02:55:44.494Z,90.74
2023-04-06T02:59:47.432Z,90.83
2023-04-06T03:01:49.469Z,90.76
2023-04-06T03:05:53.035Z,90.83
2023-04-06T03:09:55.504Z,91.04
2023-04-06T03:11:57.236Z,90.86
2023-04-06T03:16:00.203Z,90.51
2023-04-06T03:18:01.958Z,90.48
2023-04-06T03:22:04.961Z,90.51
2023-04-06T03:26:09.085Z,90.93
2023-04-06T03:28:10.543Z,91.12
2023-04-06T03:32:13.589Z,91.66
2023-04-06T03:34:14.889Z,91.84
2023-04-06T03:38:18.349Z,92.08
2023-04-06T03:42:21.862Z,91.87
2023-04-06T03:44:23.945Z,91.74
2023-04-06T03:48:27.458Z,91.62
2023-04-06T03:52:30.968Z,91.24
2023-04-06T03:54:32.643Z,90.94
2023-04-06T03:58:36.227Z,90.88
2023-04-06T04:00:38.060Z,90.99
2023-04-06T04:05:25.508Z,91.21
2023-04-06T04:09:29.832Z,91.96
2023-04-06T04:11:31.626Z,92.03
2023-04-06T04:15:34.284Z,92.2
2023-04-06T04:19:37.683Z,92.42
2023-04-06T04:21:39.406Z,92.4
2023-04-06T04:25:42.391Z,92.07
2023-04-06T04:29:45.813Z,91.79
2023-04-06T04:31:47.592Z,91.72
2023-04-06T04:35:50.998Z,92.34
2023-04-06T04:37:52.213Z,92.33
2023-04-06T04:41:55.441Z,92.73
2023-04-06T04:45:58.326Z,92.94
2023-04-06T04:48:00.327Z,92.88
2023-04-06T04:52:03.933Z,93.02
2023-04-06T04:54:05.665Z,93.04
2023-04-06T04:58:08.784Z,93.01
2023-04-06T05:02:12.332Z,92.88
2023-04-06T05:04:13.346Z,92.94
2023-04-06T05:08:16.312Z,93.12
2023-04-06T05:12:19.318Z,93.08
2023-04-06T05:14:20.832Z,93.23
2023-04-06T05:18:24.556Z,94.14
2023-04-06T05:20:26.390Z,94.27
2023-04-06T05:24:30.142Z,92.3
2023-04-06T05:28:33.171Z,91.11
2023-04-06T05:30:34.887Z,91.35
2023-04-06T05:34:37.773Z,84.09
2023-04-06T05:36:39.097Z,83.36
2023-04-06T05:40:41.997Z,82.53
2023-04-06T05:44:45.418Z,80.31
2023-04-06T05:46:47.434Z,79.84
2023-04-06T05:50:50.513Z,78.45
2023-04-06T05:54:53.177Z,79.96
2023-04-06T05:56:54.915Z,80.1
2023-04-06T06:00:58.406Z,74.44
2023-04-06T06:02:59.454Z,75.04
2023-04-06T06:07:02.197Z,77.85
2023-04-06T06:11:04.960Z,78.64
2023-04-06T06:13:06.630Z,76.64
2023-04-06T06:17:09.247Z,77.1
2023-04-06T06:19:11.082Z,77.06
2023-04-06T06:23:14.149Z,78.05
2023-04-06T06:27:17.203Z,75.15
2023-04-06T06:29:18.735Z,76.96
2023-04-06T06:33:22.362Z,77.15
2023-04-06T06:37:24.834Z,75.52
2023-04-06T06:39:26.225Z,73.98
2023-04-06T06:43:28.834Z,76.48
2023-04-06T06:45:30.207Z,77.72
2023-04-06T06:49:33.248Z,76.98
2023-04-06T06:53:35.908Z,74.59
2023-04-06T06:55:37.276Z,73.41
2023-04-06T06:57:38.648Z,73.81
2023-04-06T06:59:40.754Z,72.7
2023-04-06T07:01:42.179Z,72.08
2023-04-06T07:05:44.785Z,71.94
2023-04-06T07:07:46.524Z,71.43
2023-04-06T07:09:47.752Z,69.95
2023-04-06T07:11:49.822Z,72.59
2023-04-06T07:15:52.489Z,71.62
2023-04-06T07:17:53.751Z,72.34
2023-04-06T07:21:56.634Z,71.68
2023-04-06T07:25:58.822Z,71.98
2023-04-06T07:27:59.909Z,70.68
2023-04-06T07:32:03.164Z,70.56
2023-04-06T07:36:05.030Z,66.88
2023-04-06T07:38:06.310Z,69.57
2023-04-06T07:42:08.166Z,66.91
2023-04-06T07:44:10.080Z,64.15
2023-04-06T07:48:12.742Z,62.75
2023-04-06T07:52:16.236Z,64.27
2023-04-06T07:54:17.916Z,62.95
2023-04-06T07:58:21.197Z,60.41
2023-04-06T08:00:23.067Z,58.76
2023-04-06T08:04:25.994Z,54.65
2023-04-06T08:08:29.330Z,53.73
2023-04-06T08:10:30.757Z,56.41
2023-04-06T08:14:33.224Z,54.97
2023-04-06T08:18:36.700Z,50.77
2023-04-06T08:20:38.070Z,50.96
2023-04-06T08:24:40.995Z,53.79
2023-04-06T08:26:42.671Z,51.57
2023-04-06T08:30:45.057Z,50.21
2023-04-06T08:34:47.195Z,53.08
2023-04-06T08:36:48.925Z,50.2
2023-04-06T08:40:51.692Z,49.48
2023-04-06T08:42:53.448Z,48.13
2023-04-06T08:46:56.318Z,47.91
2023-04-06T08:50:59.727Z,50.19
2023-04-06T08:53:01.342Z,48.35
2023-04-06T08:57:05.203Z,45.92
2023-04-06T09:01:08.503Z,45.71
2023-04-06T09:03:10.146Z,44.47
2023-04-06T09:07:11.776Z,39.52
2023-04-06T09:09:12.831Z,41.86
2023-04-06T09:13:16.084Z,40.8
2023-04-06T09:17:18.792Z,42.48
2023-04-06T09:19:20.288Z,37.9
2023-04-06T09:23:23.835Z,39.47
2023-04-06T09:25:25.069Z,38.91
2023-04-06T09:29:27.470Z,37.63
2023-04-06T09:33:29.504Z,36.67
2023-04-06T09:35:31.144Z,39.64
2023-04-06T09:39:33.734Z,35.31
2023-04-06T09:43:37.038Z,35.66
2023-04-06T09:45:38.832Z,37.25
2023-04-06T09:49:40.912Z,39.65
2023-04-06T09:51:42.128Z,36.44
2023-04-06T09:53:43.049Z,36.96
2023-04-06T09:55:44.643Z,39.71
2023-04-06T09:59:47.535Z,37
2023-04-06T10:01:49.045Z,37.62
2023-04-06T10:03:50.359Z,39.37
2023-04-06T10:05:51.453Z,38.49
2023-04-06T10:07:59.966Z,35.88
2023-04-06T10:11:56.564Z,36.92
2023-04-06T10:13:57.759Z,37.66
2023-04-06T10:15:59.100Z,35.84
2023-04-06T10:18:00.899Z,36.35
2023-04-06T10:22:04.320Z,38.01
2023-04-06T10:24:05.729Z,37.25
2023-04-06T10:28:08.990Z,39.08
2023-04-06T10:32:11.888Z,40.29
2023-04-06T10:34:12.950Z,37.88
2023-04-06T10:38:15.854Z,37.68
2023-04-06T10:42:18.783Z,38.03
2023-04-06T10:44:20.181Z,38.12
2023-04-06T10:48:22.687Z,36.1
2023-04-06T10:53:08.895Z,35.95
2023-04-06T10:55:10.246Z,39.73
2023-04-06T10:59:12.584Z,36.87
2023-04-06T11:01:14.333Z,36.04
2023-04-06T11:05:17.745Z,38.63
2023-04-06T11:09:20.016Z,38.55
2023-04-06T11:11:21.828Z,37.73
2023-04-06T11:15:25.056Z,36
2023-04-06T11:19:27.828Z,36.06
2023-04-06T11:21:29.289Z,37.05
2023-04-06T11:25:32.266Z,35.96
2023-04-06T11:27:33.365Z,37.06
2023-04-06T11:31:36.297Z,36.19
2023-04-06T11:35:38.875Z,35.49
2023-04-06T11:37:40.487Z,38.08
2023-04-06T11:41:43.201Z,39.3
2023-04-06T11:43:44.978Z,37.86
2023-04-06T11:47:47.669Z,35.11
2023-04-06T11:51:50.699Z,37.42
2023-04-06T11:53:51.605Z,33.11
2023-04-06T11:57:55.177Z,31.41
2023-04-06T12:01:57.158Z,34.55
2023-04-06T12:03:58.572Z,34.01
2023-04-06T12:08:01.403Z,31.98
2023-04-06T12:10:01.970Z,33.19
2023-04-06T12:14:04.482Z,35.08
2023-04-06T12:18:06.744Z,35.39
2023-04-06T12:20:17.934Z,34.76
2023-04-06T12:24:10.807Z,35.55
2023-04-06T12:26:13.145Z,35.58
2023-04-06T12:30:14.388Z,36.74
2023-04-06T12:34:17.634Z,35.39
2023-04-06T12:36:19.184Z,34.45
2023-04-06T12:40:22.303Z,33.01
2023-04-06T12:42:23.531Z,36.56
2023-04-06T12:46:26.332Z,32.53
2023-04-06T12:50:29.468Z,32.46
2023-04-06T12:52:31.032Z,36.51
2023-04-06T12:56:34.337Z,31.17
2023-04-06T13:00:37.191Z,31.37
2023-04-06T13:02:38.420Z,31.17
2023-04-06T13:06:41.396Z,29.52
2023-04-06T13:08:43.056Z,31.89
2023-04-06T13:12:45.936Z,30.88
2023-04-06T13:16:48.227Z,33.59
2023-04-06T13:18:49.140Z,31.22
2023-04-06T13:22:51.987Z,34.2
2023-04-06T13:24:53.691Z,34.25
2023-04-06T13:28:56.258Z,35.63
2023-04-06T13:32:58.115Z,30.5
2023-04-06T13:34:59.646Z,32.31
2023-04-06T13:39:02.908Z,33.25
2023-04-06T13:43:05.059Z,32.67
2023-04-06T13:45:06.066Z,33.56
2023-04-06T13:49:08.464Z,31
2023-04-06T13:51:09.433Z,33.56
2023-04-06T13:53:11.083Z,31.44
2023-04-06T13:55:12.352Z,31.05
2023-04-06T13:59:15.441Z,31.65
2023-04-06T14:01:17.078Z,32.85
2023-04-06T14:03:17.847Z,34.8
2023-04-06T14:05:19.551Z,31.28
2023-04-06T14:07:20.823Z,34.45
2023-04-06T14:11:23.654Z,32.52
2023-04-06T14:13:25.083Z,30.62
2023-04-06T14:15:26.596Z,29.79
2023-04-06T14:17:27.984Z,31.78
2023-04-06T14:21:30.889Z,30.45
2023-04-06T14:23:32.505Z,30.84
2023-04-06T14:27:35.565Z,30.48
2023-04-06T14:31:37.653Z,31.63
2023-04-06T14:33:39.363Z,31.4
2023-04-06T14:37:41.957Z,31.73
2023-04-06T14:41:44.779Z,31.11
2023-04-06T14:43:45.781Z,32.68
2023-04-06T14:47:48.283Z,31.96
2023-04-06T14:49:49.357Z,31.85
2023-04-06T14:53:52.499Z,36.67
2023-04-06T14:57:54.701Z,31.55
2023-04-06T14:59:56.000Z,30.31
2023-04-06T15:03:59.101Z,30.73
2023-04-06T15:06:00.542Z,30.26
2023-04-06T15:10:03.105Z,31.76
2023-04-06T15:14:05.301Z,30.47
2023-04-06T15:16:06.706Z,32.2
2023-04-06T15:20:08.981Z,31.39
2023-04-06T15:24:11.420Z,31.66
2023-04-06T15:26:12.326Z,30.59
2023-04-06T15:30:15.398Z,30.5
2023-04-06T15:32:16.728Z,30.41
2023-04-06T15:36:19.947Z,33.1
2023-04-06T15:40:22.582Z,33.52
2023-04-06T15:42:24.122Z,33.73
2023-04-06T15:46:26.630Z,34.03
2023-04-06T15:48:28.002Z,34.44
2023-04-06T15:52:31.014Z,33.2
2023-04-06T15:56:33.749Z,32.73
2023-04-06T15:58:34.684Z,33.69
2023-04-06T16:02:37.982Z,32.64
2023-04-06T16:06:41.168Z,33.47
2023-04-06T16:08:42.218Z,33.06
2023-04-06T16:12:45.622Z,33.77
2023-04-06T16:14:47.072Z,33.1
2023-04-06T16:16:48.146Z,33.44
2023-04-06T16:18:49.076Z,33.39
2023-04-06T16:22:52.641Z,33.05
2023-04-06T16:24:53.905Z,33.17
2023-04-06T16:26:55.444Z,33.03
2023-04-06T16:28:56.942Z,33.06
2023-04-06T16:30:58.368Z,33.15
2023-04-06T16:35:00.876Z,33.35
2023-04-06T16:39:03.790Z,33.61
2023-04-06T16:41:05.553Z,32.8
2023-04-06T16:45:08.908Z,32.53
2023-04-06T16:51:13.270Z,32.34
2023-04-06T16:55:16.284Z,33
2023-04-06T16:57:18.063Z,31.95
2023-04-06T17:01:20.986Z,33.59
2023-04-06T17:05:24.286Z,34.76
2023-04-06T17:07:25.926Z,35.44
2023-04-06T17:11:32.741Z,38.11
2023-04-06T17:13:29.244Z,36.8
2023-04-06T17:17:31.498Z,35.93
2023-04-06T17:21:34.421Z,35.15
2023-04-06T17:23:35.578Z,35.35
2023-04-06T17:27:38.479Z,35.46
2023-04-06T17:29:39.663Z,36.49
2023-04-06T17:33:42.159Z,35.97
2023-04-06T17:38:29.333Z,37.12
2023-04-06T17:40:31.029Z,38.3
2023-04-06T17:42:32.814Z,38.52
2023-04-06T17:44:34.019Z,39.24
2023-04-06T17:48:36.894Z,38.11
2023-04-06T17:50:38.759Z,37.48
2023-04-06T17:54:42.162Z,38.79
2023-04-06T17:56:43.546Z,39.26
2023-04-06T18:00:46.002Z,38.79
2023-04-06T18:04:49.304Z,40.7
2023-04-06T18:06:51.236Z,43.17
2023-04-06T18:10:54.772Z,44.67
2023-04-06T18:14:57.406Z,45.01
2023-04-06T18:16:58.583Z,43.46
2023-04-06T18:21:01.399Z,45.49
2023-04-06T18:23:02.728Z,45.14
2023-04-06T18:25:04.519Z,43.4
2023-04-06T18:27:05.535Z,45.53
2023-04-06T18:31:08.797Z,44.81
2023-04-06T18:33:10.756Z,44.32
2023-04-06T18:35:11.851Z,46.13
2023-04-06T18:37:12.885Z,45.39
2023-04-06T18:39:15.208Z,45.29
2023-04-06T18:43:18.077Z,45.2
2023-04-06T18:45:19.118Z,45.97
2023-04-06T18:47:20.862Z,46.41
2023-04-06T18:49:22.044Z,43.87
2023-04-06T18:53:24.497Z,45.13
2023-04-06T18:55:26.303Z,44.86
2023-04-06T18:59:29.690Z,45.79
2023-04-06T19:03:32.381Z,46.74
2023-04-06T19:05:34.074Z,46.11
2023-04-06T19:09:36.824Z,45.74
2023-04-06T19:13:39.634Z,46.8
2023-04-06T19:15:40.927Z,48.26
2023-04-06T19:19:44.321Z,47.53
2023-04-06T19:21:46.109Z,47.22
2023-04-06T19:25:49.222Z,48.78
2023-04-06T19:29:51.946Z,49.3
2023-04-06T19:31:53.891Z,48.83
2023-04-06T19:35:56.725Z,49.58
2023-04-06T19:37:58.450Z,50.46
2023-04-06T19:42:00.921Z,49.01
2023-04-06T19:46:03.252Z,52.44
2023-04-06T19:48:04.459Z,53.52
2023-04-06T19:52:07.106Z,52.53
2023-04-06T19:56:10.400Z,52.82
2023-04-06T19:58:12.209Z,52.7
2023-04-06T20:02:15.843Z,52.96
2023-04-06T20:04:17.142Z,54.72
2023-04-06T20:08:20.531Z,57.4
2023-04-06T20:12:23.612Z,56.49
2023-04-06T20:14:25.368Z,56.24
2023-04-06T20:18:27.207Z,56.59
2023-04-06T20:20:28.986Z,55.09
2023-04-06T20:24:31.993Z,57.76
2023-04-06T20:28:34.939Z,57.74
2023-04-06T20:30:36.415Z,65.66
2023-04-06T20:34:39.414Z,60.43
2023-04-06T20:38:42.959Z,57.84
2023-04-06T20:40:44.515Z,57.64
2023-04-06T20:44:47.299Z,59.21
2023-04-06T20:46:49.151Z,59.27
2023-04-06T20:50:52.838Z,57.73
2023-04-06T20:54:54.879Z,60.56
2023-04-06T20:56:56.471Z,62.18
2023-04-06T21:00:58.921Z,58.68
2023-04-06T21:03:00.154Z,56.36
2023-04-06T21:07:11.191Z,55.41
2023-04-06T21:11:06.480Z,55.92
2023-04-06T21:13:07.880Z,58.91
2023-04-06T21:17:10.860Z,57.59
2023-04-06T21:21:13.933Z,55.92
2023-04-06T21:23:15.740Z,55.05
2023-04-06T21:27:18.910Z,61.83
2023-04-06T21:29:20.493Z,61.34
2023-04-06T21:31:22.411Z,60.42
2023-04-06T21:33:23.951Z,60.28
2023-04-06T21:37:26.295Z,57.18
2023-04-06T21:39:27.429Z,57.33
2023-04-06T21:41:29.189Z,57.52
2023-04-06T21:43:30.200Z,57.56
2023-04-06T21:45:32.098Z,56.92
2023-04-06T21:49:34.934Z,55.96
2023-04-06T21:51:36.863Z,57.01
2023-04-06T21:53:38.649Z,56.47
2023-04-06T21:55:40.127Z,55.77
2023-04-06T21:59:43.249Z,56.54
2023-04-06T22:01:45.167Z,56.18
2023-04-06T22:05:47.103Z,56.72
2023-04-06T22:09:50.010Z,57.35
2023-04-06T22:11:50.781Z,56.98
2023-04-06T22:15:53.953Z,57.86
2023-04-06T22:19:55.986Z,58.85
2023-04-06T22:21:57.605Z,59.62
2023-04-06T22:26:00.283Z,58.31
2023-04-06T22:28:01.791Z,57.81
2023-04-06T22:32:04.861Z,58.77
2023-04-06T22:36:07.552Z,59.8
2023-04-06T22:38:08.966Z,59.99
2023-04-06T22:42:12.614Z,61.31
2023-04-06T22:44:14.852Z,61.13
2023-04-06T22:48:17.589Z,61.51
2023-04-06T22:52:20.089Z,62.06
2023-04-06T22:54:21.746Z,61.27
2023-04-06T22:58:24.983Z,62.16
2023-04-06T23:02:27.026Z,62.33
2023-04-06T23:04:28.805Z,61.8
2023-04-06T23:08:31.667Z,61.38
2023-04-06T23:10:33.264Z,62.35
2023-04-06T23:14:36.145Z,61.44
2023-04-06T23:18:39.046Z,62.61
2023-04-06T23:20:40.275Z,63.18
2023-04-06T23:24:43.399Z,64.59
2023-04-06T23:26:44.563Z,65.34
2023-04-06T23:30:47.913Z,66.82
2023-04-06T23:34:50.347Z,67.18
2023-04-06T23:36:51.630Z,67.77
2023-04-06T23:40:54.911Z,68.09
2023-04-06T23:44:57.159Z,67.82
2023-04-06T23:46:59.083Z,67.77
2023-04-06T23:51:01.835Z,67.72
2023-04-06T23:53:03.414Z,67.87
2023-04-06T23:55:04.450Z,68.47
2023-04-06T23:57:06.102Z,68.59
